Time;durP1;ratioP1;P1;durP2;ratioP2;P2;SDS_P1;SDS_P2;PMS_P1;PMS_P2;Temp;Humidity;BMP_temperature;BMP_pressure;BME280_temperature;BME280_humidity;BME280_pressure;Samples;Min_cycle;Max_cycle;Signal;HPM_P1;HPM_P2
2022/03/07 00:02:10;;;;;;;4.43;2.80;;;-0.10;99.30;;;;;;5076543;28;20170;-71
2022/03/07 00:04:35;;;;;;;5.93;3.10;;;-0.20;99.90;;;;;;5089383;28;20059;-70
2022/03/07 00:07:01;;;;;;;7.68;3.20;;;-0.30;99.90;;;;;;5087643;28;20540;-70
2022/03/07 00:09:27;;;;;;;7.65;3.65;;;-0.40;99.90;;;;;;5089442;28;20028;-70
2022/03/07 00:11:52;;;;;;;3.97;3.08;;;-0.40;99.90;;;;;;5087512;28;20020;-70
2022/03/07 00:14:19;;;;;;;5.63;3.70;;;-0.60;99.90;;;;;;5089565;28;20028;-71
2022/03/07 00:16:45;;;;;;;8.38;4.38;;;-0.70;99.90;;;;;;5087239;28;20358;-70
2022/03/07 00:19:11;;;;;;;8.95;4.28;;;-0.90;99.90;;;;;;5089576;28;20035;-71
2022/03/07 00:21:37;;;;;;;8.30;3.65;;;-1.10;99.90;;;;;;5086753;28;20492;-70
2022/03/07 00:24:04;;;;;;;4.40;2.85;;;-1.30;99.90;;;;;;5089205;28;20120;-70
2022/03/07 00:26:30;;;;;;;6.07;3.25;;;-1.50;99.90;;;;;;5080789;28;20510;-71
2022/03/07 00:28:55;;;;;;;4.07;2.70;;;-1.60;99.90;;;;;;5089305;28;20044;-71
2022/03/07 00:31:21;;;;;;;8.43;4.07;;;-1.80;99.90;;;;;;5087281;28;20561;-69
2022/03/07 00:33:47;;;;;;;4.95;3.25;;;-2.00;99.90;;;;;;5088995;28;20208;-69
2022/03/07 00:36:13;;;;;;;7.22;3.05;;;-2.10;99.90;;;;;;5087354;28;20399;-71
2022/03/07 00:38:39;;;;;;;8.30;3.78;;;-2.30;99.90;;;;;;5089113;28;20103;-68
2022/03/07 00:41:04;;;;;;;6.68;3.88;;;-2.40;99.90;;;;;;5087010;28;20031;-70
2022/03/07 00:43:31;;;;;;;7.85;3.63;;;-2.50;99.90;;;;;;5089516;28;20049;-69
2022/03/07 00:45:57;;;;;;;5.15;3.53;;;-2.60;99.90;;;;;;5087218;28;20039;-69
2022/03/07 00:48:22;;;;;;;8.65;3.45;;;-2.80;99.90;;;;;;5089272;28;20028;-69
2022/03/07 00:50:51;;;;;;;5.25;3.28;;;-2.80;99.90;;;;;;5068374;28;20051;-69
2022/03/07 00:53:18;;;;;;;7.88;3.20;;;-2.90;99.90;;;;;;5089195;28;20030;-70
2022/03/07 00:55:44;;;;;;;6.38;3.75;;;-3.00;99.90;;;;;;5088858;28;20404;-69
2022/03/07 00:58:10;;;;;;;8.07;3.45;;;-3.00;99.90;;;;;;5086802;28;20024;-70
2022/03/07 01:00:37;;;;;;;8.18;4.40;;;-3.10;99.90;;;;;;5088847;28;20028;-69
2022/03/07 01:03:04;;;;;;;8.13;4.35;;;-3.20;99.90;;;;;;5067793;28;20025;-68
2022/03/07 01:05:29;;;;;;;9.13;4.47;;;-3.20;99.90;;;;;;5088112;28;20145;-69
2022/03/07 01:07:55;;;;;;;15.13;5.63;;;-3.30;99.90;;;;;;5068952;28;20111;-68
2022/03/07 01:10:20;;;;;;;11.93;5.82;;;-3.30;99.90;;;;;;5087838;28;20476;-68
2022/03/07 01:12:46;;;;;;;14.07;6.28;;;-3.40;99.90;;;;;;5070208;28;20047;-70
2022/03/07 01:15:12;;;;;;;15.40;5.72;;;-3.40;99.90;;;;;;5087902;28;20115;-69
2022/03/07 01:17:37;;;;;;;11.52;5.53;;;-3.40;99.90;;;;;;5071394;28;20028;-68
2022/03/07 01:20:05;;;;;;;15.00;5.65;;;-3.50;99.90;;;;;;5087846;28;20036;-68
2022/03/07 01:22:30;;;;;;;15.73;5.40;;;-3.50;99.90;;;;;;5086542;28;20256;-69
2022/03/07 01:24:56;;;;;;;11.27;6.00;;;-3.50;99.90;;;;;;5088484;28;20078;-68
2022/03/07 01:27:21;;;;;;;18.02;6.18;;;-3.60;99.90;;;;;;5076880;28;20032;-69
2022/03/07 01:29:47;;;;;;;17.48;6.22;;;-3.60;99.90;;;;;;5088321;28;20040;-69
2022/03/07 01:32:12;;;;;;;13.30;6.20;;;-3.60;99.90;;;;;;5074613;28;20481;-68
2022/03/07 01:34:38;;;;;;;12.68;5.65;;;-3.70;99.90;;;;;;5091705;28;20024;-68
2022/03/07 01:37:03;;;;;;;16.25;5.90;;;-3.70;99.90;;;;;;5090564;28;20479;-67
2022/03/07 01:39:29;;;;;;;12.77;5.50;;;-3.80;99.90;;;;;;5092170;28;20179;-68
2022/03/07 01:41:55;;;;;;;9.60;4.30;;;-3.80;99.90;;;;;;5090633;28;20036;-69
2022/03/07 01:44:24;;;;;;;13.07;5.78;;;-3.80;99.90;;;;;;5092171;28;20035;-68
2022/03/07 01:46:50;;;;;;;14.07;5.25;;;-3.80;99.90;;;;;;5090153;28;20535;-67
2022/03/07 01:49:16;;;;;;;11.98;5.15;;;-3.80;99.90;;;;;;5092380;28;20030;-69
2022/03/07 01:51:43;;;;;;;11.38;5.03;;;-3.80;99.90;;;;;;5089878;28;20040;-67
2022/03/07 01:54:11;;;;;;;8.05;4.43;;;-3.90;99.90;;;;;;5092204;28;20020;-68
2022/03/07 01:56:36;;;;;;;10.20;4.53;;;-3.90;99.90;;;;;;5090048;28;20036;-68
2022/03/07 01:59:04;;;;;;;7.03;4.10;;;-3.90;99.90;;;;;;5089913;28;20035;-68
2022/03/07 02:01:30;;;;;;;7.03;3.75;;;-4.00;99.90;;;;;;5092081;28;20488;-68
2022/03/07 02:03:55;;;;;;;7.15;3.67;;;-4.00;99.90;;;;;;5078848;28;20029;-69
2022/03/07 02:06:22;;;;;;;3.92;2.50;;;-4.00;99.90;;;;;;5091283;28;20085;-68
2022/03/07 02:08:49;;;;;;;6.65;3.20;;;-4.00;99.90;;;;;;5089790;28;20162;-68
2022/03/07 02:11:16;;;;;;;7.00;4.15;;;-4.00;99.90;;;;;;5091881;28;20066;-69
2022/03/07 02:13:41;;;;;;;5.45;3.20;;;-4.00;99.90;;;;;;5089837;28;20067;-67
2022/03/07 02:16:07;;;;;;;4.45;2.33;;;-4.10;99.90;;;;;;5091712;28;20073;-68
2022/03/07 02:18:33;;;;;;;5.85;3.50;;;-4.10;99.90;;;;;;5089840;28;20032;-68
2022/03/07 02:21:06;;;;;;;3.63;2.25;;;-4.10;99.90;;;;;;5091711;28;20437;-68
2022/03/07 02:23:32;;;;;;;6.72;3.22;;;-4.20;99.90;;;;;;5065226;28;20047;-68
2022/03/07 02:25:57;;;;;;;3.72;2.22;;;-4.10;99.90;;;;;;5091486;28;20028;-70
2022/03/07 02:28:23;;;;;;;4.20;3.00;;;-4.10;99.90;;;;;;5082559;28;20076;-70
2022/03/07 02:30:51;;;;;;;3.30;2.42;;;-4.10;99.90;;;;;;5091362;28;20491;-70
2022/03/07 02:33:17;;;;;;;5.88;3.22;;;-4.00;99.90;;;;;;5089423;28;20024;-70
2022/03/07 02:35:43;;;;;;;4.57;2.90;;;-4.00;99.90;;;;;;5091228;28;20039;-70
2022/03/07 02:38:13;;;;;;;7.03;3.53;;;-3.90;99.90;;;;;;5089360;28;20023;-70
2022/03/07 02:40:40;;;;;;;7.72;3.55;;;-3.70;99.90;;;;;;5091467;28;20012;-68
2022/03/07 02:43:05;;;;;;;5.80;3.25;;;-3.60;99.90;;;;;;5088740;28;20564;-70
2022/03/07 02:45:31;;;;;;;8.00;3.38;;;-3.50;99.90;;;;;;5091161;28;20040;-71
2022/03/07 02:47:57;;;;;;;7.97;3.35;;;-3.40;99.90;;;;;;5089057;28;20115;-68
2022/03/07 02:50:23;;;;;;;3.75;2.90;;;-3.30;99.90;;;;;;5091196;28;20036;-70
2022/03/07 02:52:48;;;;;;;5.30;3.72;;;-3.20;99.90;;;;;;5089098;28;20035;-67
2022/03/07 02:55:13;;;;;;;4.57;3.40;;;-3.10;99.90;;;;;;5090891;28;20031;-68
2022/03/07 02:57:39;;;;;;;8.07;3.78;;;-3.00;99.90;;;;;;5088962;28;20039;-66
2022/03/07 03:00:05;;;;;;;6.53;3.83;;;-2.80;99.90;;;;;;5090990;28;20459;-67
2022/03/07 03:02:31;;;;;;;6.38;3.60;;;-2.70;99.90;;;;;;5090660;28;20491;-68
2022/03/07 03:04:56;;;;;;;6.05;3.08;;;-2.70;99.90;;;;;;5088892;28;20038;-68
2022/03/07 03:07:21;;;;;;;4.50;3.35;;;-2.60;99.90;;;;;;5090582;28;20399;-69
2022/03/07 03:09:47;;;;;;;6.65;2.75;;;-2.60;99.90;;;;;;5070618;28;20074;-68
2022/03/07 03:12:12;;;;;;;3.72;2.53;;;-2.60;99.90;;;;;;5089919;28;20032;-68
2022/03/07 03:14:39;;;;;;;5.32;3.38;;;-2.70;99.90;;;;;;5071711;28;20028;-68
2022/03/07 03:17:05;;;;;;;5.13;2.83;;;-2.80;99.90;;;;;;5089891;28;20024;-69
2022/03/07 03:19:30;;;;;;;6.47;3.67;;;-2.80;99.90;;;;;;5072772;28;20036;-68
2022/03/07 03:21:56;;;;;;;9.15;3.83;;;-2.90;99.90;;;;;;5089592;28;20028;-69
2022/03/07 03:24:21;;;;;;;6.18;3.63;;;-2.90;99.90;;;;;;5083825;28;20058;-68
2022/03/07 03:26:47;;;;;;;7.65;3.45;;;-3.00;99.90;;;;;;5086803;28;20032;-68
2022/03/07 03:29:12;;;;;;;5.97;3.22;;;-3.00;99.90;;;;;;5088307;28;20028;-68
2022/03/07 03:31:38;;;;;;;6.30;3.28;;;-3.00;99.90;;;;;;5090317;28;20040;-69
2022/03/07 03:34:03;;;;;;;6.65;3.42;;;-3.10;99.90;;;;;;5076195;28;20040;-68
2022/03/07 03:36:29;;;;;;;6.18;3.50;;;-3.10;99.90;;;;;;5089636;28;20078;-70
2022/03/07 03:38:54;;;;;;;6.30;3.67;;;-3.20;99.90;;;;;;5087919;28;20441;-71
2022/03/07 03:41:20;;;;;;;10.90;3.85;;;-3.20;99.90;;;;;;5090011;28;20024;-71
2022/03/07 03:43:45;;;;;;;4.47;2.40;;;-3.30;99.90;;;;;;5088343;28;20020;-70
2022/03/07 03:46:10;;;;;;;7.55;4.00;;;-3.30;99.90;;;;;;5089817;28;20555;-71
2022/03/07 03:48:36;;;;;;;6.20;3.15;;;-3.30;99.90;;;;;;5069951;28;20101;-71
2022/03/07 03:51:02;;;;;;;6.65;4.15;;;-3.40;99.90;;;;;;5089635;28;20044;-70
2022/03/07 03:53:28;;;;;;;6.13;3.58;;;-3.40;99.90;;;;;;5087998;28;20028;-72
2022/03/07 03:55:53;;;;;;;6.45;3.75;;;-3.40;99.90;;;;;;5088916;28;20062;-71
2022/03/07 03:58:18;;;;;;;9.95;4.28;;;-3.40;99.90;;;;;;5088030;28;20478;-71
2022/03/07 04:00:44;;;;;;;7.70;3.63;;;-3.50;99.90;;;;;;5089754;28;20040;-71
2022/03/07 04:03:09;;;;;;;6.40;3.88;;;-3.50;99.90;;;;;;5087642;28;20032;-72
2022/03/07 04:05:35;;;;;;;8.63;4.10;;;-3.50;99.90;;;;;;5090040;28;20055;-71
2022/03/07 04:08:00;;;;;;;3.78;2.72;;;-3.60;99.90;;;;;;5087453;28;20411;-71
2022/03/07 04:10:26;;;;;;;13.43;5.30;;;-3.60;99.90;;;;;;5089670;28;20044;-71
2022/03/07 04:12:51;;;;;;;8.65;4.05;;;-3.60;99.90;;;;;;5087427;28;20028;-71
2022/03/07 04:15:17;;;;;;;7.25;4.15;;;-3.60;99.90;;;;;;5089818;28;20176;-72
2022/03/07 04:17:44;;;;;;;11.30;4.70;;;-3.70;99.90;;;;;;5087337;28;20020;-71
2022/03/07 04:20:10;;;;;;;10.73;5.00;;;-3.70;99.90;;;;;;5089694;28;20032;-72
2022/03/07 04:22:36;;;;;;;9.63;4.82;;;-3.70;99.90;;;;;;5069236;28;20502;-70
2022/03/07 04:25:03;;;;;;;10.80;4.72;;;-3.80;99.90;;;;;;5089136;28;20059;-71
2022/03/07 04:27:28;;;;;;;9.63;4.82;;;-3.80;99.90;;;;;;5082453;28;20055;-71
2022/03/07 04:29:55;;;;;;;9.13;4.32;;;-3.80;99.90;;;;;;5067777;28;20048;-71
2022/03/07 04:32:21;;;;;;;5.93;3.88;;;-3.90;99.90;;;;;;5088662;28;20031;-72
2022/03/07 04:34:47;;;;;;;10.65;5.18;;;-4.00;99.90;;;;;;5069011;28;20034;-71
2022/03/07 04:37:12;;;;;;;11.27;5.95;;;-4.00;99.90;;;;;;5088389;28;20030;-71
2022/03/07 04:39:38;;;;;;;4.03;3.00;;;-4.10;99.90;;;;;;5070210;28;20055;-72
2022/03/07 04:42:03;;;;;;;9.95;4.72;;;-4.10;99.90;;;;;;5086159;28;20142;-71
2022/03/07 04:44:29;;;;;;;5.88;3.25;;;-4.10;99.90;;;;;;5088715;28;20032;-71
2022/03/07 04:46:54;;;;;;;7.05;4.32;;;-4.10;99.90;;;;;;5085984;28;20051;-71
2022/03/07 04:49:20;;;;;;;10.23;5.20;;;-4.10;99.90;;;;;;5088913;28;20109;-72
2022/03/07 04:51:46;;;;;;;9.27;4.72;;;-4.20;99.90;;;;;;5086741;28;20032;-71
2022/03/07 04:54:13;;;;;;;12.60;4.70;;;-4.10;99.90;;;;;;5066737;28;20032;-72
2022/03/07 04:56:40;;;;;;;10.70;5.55;;;-4.20;99.90;;;;;;5088561;28;20028;-73
2022/03/07 04:59:05;;;;;;;16.90;6.57;;;-4.20;99.90;;;;;;5070154;28;20040;-72
2022/03/07 05:01:31;;;;;;;7.20;4.05;;;-4.30;99.90;;;;;;5088401;28;20040;-71
2022/03/07 05:03:56;;;;;;;11.02;5.15;;;-4.30;99.90;;;;;;5071621;28;20044;-72
2022/03/07 05:06:22;;;;;;;8.00;4.13;;;-4.30;99.90;;;;;;5088394;28;20420;-71
2022/03/07 05:08:47;;;;;;;7.18;3.90;;;-4.40;99.90;;;;;;5072753;28;20111;-70
2022/03/07 05:11:13;;;;;;;10.98;6.45;;;-4.40;99.90;;;;;;5088153;28;20496;-70
2022/03/07 05:13:38;;;;;;;10.40;5.97;;;-4.40;99.90;;;;;;5074070;28;20024;-71
2022/03/07 05:16:05;;;;;;;10.65;5.75;;;-4.40;99.90;;;;;;5088256;28;20030;-70
2022/03/07 05:18:31;;;;;;;8.23;5.00;;;-4.40;99.90;;;;;;5075042;28;20028;-65
2022/03/07 05:20:56;;;;;;;11.52;5.13;;;-4.40;99.90;;;;;;5088015;28;20483;-65
2022/03/07 05:23:22;;;;;;;8.90;4.60;;;-4.40;99.90;;;;;;5086426;28;20131;-65
2022/03/07 05:25:47;;;;;;;7.70;4.18;;;-4.40;99.90;;;;;;5088613;28;20071;-65
2022/03/07 05:28:13;;;;;;;9.73;5.13;;;-4.40;99.90;;;;;;5079722;28;20028;-65
2022/03/07 05:30:38;;;;;;;7.28;4.72;;;-4.30;99.90;;;;;;5088281;28;20055;-65
2022/03/07 05:33:04;;;;;;;7.90;4.60;;;-4.30;99.90;;;;;;5086564;28;20097;-65
2022/03/07 05:35:29;;;;;;;11.60;5.63;;;-4.30;99.90;;;;;;5070669;28;20449;-65
2022/03/07 05:37:55;;;;;;;8.30;4.20;;;-4.20;99.90;;;;;;5086467;28;20028;-65
2022/03/07 05:40:20;;;;;;;8.57;5.00;;;-4.20;99.90;;;;;;5082400;28;20036;-65
2022/03/07 05:42:46;;;;;;;10.57;4.43;;;-4.10;99.90;;;;;;5087833;28;20036;-66
2022/03/07 05:45:13;;;;;;;9.32;5.38;;;-4.00;99.90;;;;;;5068911;28;20363;-65
2022/03/07 05:47:40;;;;;;;12.43;5.00;;;-3.90;99.90;;;;;;5088144;28;20028;-63
2022/03/07 05:50:06;;;;;;;9.52;4.63;;;-3.80;99.90;;;;;;5069478;28;20079;-65
2022/03/07 05:52:32;;;;;;;7.93;4.25;;;-3.70;99.90;;;;;;5087829;28;20471;-65
2022/03/07 05:54:57;;;;;;;7.35;4.03;;;-3.60;99.90;;;;;;5070919;28;20052;-65
2022/03/07 05:57:23;;;;;;;10.30;5.22;;;-3.40;99.90;;;;;;5087779;28;20028;-65
2022/03/07 05:59:48;;;;;;;12.15;5.20;;;-3.20;99.90;;;;;;5071841;28;20450;-65
2022/03/07 06:02:14;;;;;;;6.80;4.05;;;-3.10;99.90;;;;;;5074861;28;20039;-65
2022/03/07 06:04:39;;;;;;;10.98;5.55;;;-2.90;99.90;;;;;;5086083;28;20036;-64
2022/03/07 06:07:05;;;;;;;14.43;6.47;;;-2.70;99.90;;;;;;5085214;28;20042;-66
2022/03/07 06:09:30;;;;;;;9.15;5.20;;;-2.50;99.90;;;;;;5087328;28;20046;-66
2022/03/07 06:11:56;;;;;;;9.30;5.38;;;-2.30;99.90;;;;;;5084787;28;20423;-66
2022/03/07 06:14:21;;;;;;;7.75;4.50;;;-2.10;99.90;;;;;;5086830;28;20534;-67
2022/03/07 06:16:47;;;;;;;8.60;4.95;;;-1.90;99.90;;;;;;5084768;28;20036;-67
2022/03/07 06:19:12;;;;;;;11.68;6.15;;;-1.70;99.90;;;;;;5088615;28;20040;-67
2022/03/07 06:21:38;;;;;;;12.35;6.13;;;-1.40;99.90;;;;;;5089041;28;20473;-66
2022/03/07 06:24:04;;;;;;;9.80;5.57;;;-0.90;99.90;;;;;;5090221;28;20051;-65
2022/03/07 06:26:29;;;;;;;15.18;6.30;;;0.20;99.90;;;;;;5083037;28;20095;-64
2022/03/07 06:28:55;;;;;;;11.10;5.78;;;1.90;99.90;;;;;;5070198;28;20096;-62
2022/03/07 06:31:20;;;;;;;8.93;5.32;;;3.30;99.90;;;;;;5087866;28;20051;-63
2022/03/07 06:33:46;;;;;;;7.68;5.32;;;4.60;99.20;;;;;;5090227;28;20060;-63
2022/03/07 06:36:11;;;;;;;10.25;5.35;;;5.70;92.00;;;;;;5090488;28;20035;-63
2022/03/07 06:38:39;;;;;;;8.77;5.10;;;6.90;78.30;;;;;;5068881;28;20020;-62
2022/03/07 06:41:05;;;;;;;7.38;4.93;;;7.90;66.60;;;;;;5089793;28;20024;-63
2022/03/07 06:43:30;;;;;;;12.82;5.13;;;8.80;56.20;;;;;;5070005;28;20039;-62
2022/03/07 06:45:56;;;;;;;10.23;5.38;;;9.50;47.70;;;;;;5089336;28;20035;-60
2022/03/07 06:48:22;;;;;;;8.18;4.85;;;10.20;44.90;;;;;;5071154;28;20058;-59
2022/03/07 06:50:47;;;;;;;9.25;5.22;;;10.90;41.50;;;;;;5089128;28;20059;-59
2022/03/07 06:53:13;;;;;;;8.32;4.43;;;11.60;38.40;;;;;;5072090;28;20324;-58
2022/03/07 06:55:38;;;;;;;8.65;4.82;;;12.20;35.30;;;;;;5089390;28;20395;-59
2022/03/07 06:58:04;;;;;;;7.70;4.90;;;12.70;31.10;;;;;;5072959;28;20039;-59
2022/03/07 07:00:30;;;;;;;5.63;4.07;;;13.20;30.00;;;;;;5089544;28;20031;-58
2022/03/07 07:02:55;;;;;;;6.28;4.22;;;13.90;29.80;;;;;;5074083;28;20078;-59
2022/03/07 07:05:21;;;;;;;6.30;4.60;;;14.50;28.00;;;;;;5089057;28;20097;-59
2022/03/07 07:07:46;;;;;;;5.82;4.45;;;15.00;26.70;;;;;;5075506;28;20071;-59
2022/03/07 07:10:15;;;;;;;5.68;4.38;;;15.50;26.40;;;;;;5089084;28;20743;-59
2022/03/07 07:12:40;;;;;;;10.20;4.80;;;15.80;25.10;;;;;;5076013;28;20036;-59
2022/03/07 07:15:07;;;;;;;7.07;4.35;;;16.20;23.10;;;;;;5088696;28;20465;-59
2022/03/07 07:17:33;;;;;;;5.95;3.90;;;16.60;24.90;;;;;;5087662;28;20028;-59
2022/03/07 07:19:59;;;;;;;5.90;4.00;;;17.00;21.70;;;;;;5089673;28;20549;-59
2022/03/07 07:22:24;;;;;;;5.97;4.22;;;17.30;22.20;;;;;;5087425;28;20265;-59
2022/03/07 07:24:50;;;;;;;7.65;4.32;;;17.40;23.10;;;;;;5089133;28;20087;-59
2022/03/07 07:27:15;;;;;;;9.32;5.07;;;17.70;21.50;;;;;;5071282;28;20081;-58
2022/03/07 07:29:41;;;;;;;5.95;4.10;;;17.70;19.70;;;;;;5088213;28;20047;-58
2022/03/07 07:32:06;;;;;;;5.43;4.32;;;18.10;19.60;;;;;;5086426;28;20024;-59
2022/03/07 07:34:32;;;;;;;7.05;4.32;;;18.40;18.70;;;;;;5089266;28;20035;-59
2022/03/07 07:36:57;;;;;;;7.07;5.03;;;18.50;17.40;;;;;;5086944;28;20032;-59
2022/03/07 07:39:23;;;;;;;5.47;4.20;;;19.00;17.50;;;;;;5089099;28;20222;-59
2022/03/07 07:41:48;;;;;;;7.40;4.30;;;19.10;17.50;;;;;;5087145;28;20024;-59
2022/03/07 07:44:15;;;;;;;11.45;5.05;;;19.40;17.90;;;;;;5089298;28;20028;-59
2022/03/07 07:46:41;;;;;;;5.68;4.72;;;19.50;15.90;;;;;;5086940;28;20020;-59
2022/03/07 07:49:07;;;;;;;7.05;4.88;;;19.50;16.00;;;;;;5089106;28;20085;-59
2022/03/07 07:51:32;;;;;;;8.55;4.95;;;19.60;15.80;;;;;;5086612;28;20063;-59
2022/03/07 07:54:00;;;;;;;10.85;4.95;;;19.50;15.00;;;;;;5088857;28;20209;-59
2022/03/07 07:56:25;;;;;;;6.70;4.95;;;19.70;14.30;;;;;;5086747;28;20581;-59
2022/03/07 07:58:51;;;;;;;5.65;4.05;;;19.70;14.30;;;;;;5088869;28;20056;-59
2022/03/07 08:01:16;;;;;;;6.45;4.78;;;20.00;14.70;;;;;;5086450;28;20119;-59
2022/03/07 08:03:42;;;;;;;7.30;5.47;;;20.10;14.30;;;;;;5088540;28;20024;-61
2022/03/07 08:06:07;;;;;;;8.18;5.45;;;20.10;13.70;;;;;;5088573;28;20062;-60
2022/03/07 08:08:33;;;;;;;10.05;5.25;;;19.90;13.60;;;;;;5067587;28;20735;-61
2022/03/07 08:10:58;;;;;;;5.93;4.55;;;20.10;13.70;;;;;;5087783;28;20036;-61
2022/03/07 08:13:24;;;;;;;8.57;4.63;;;20.60;13.40;;;;;;5068816;28;20423;-61
2022/03/07 08:15:49;;;;;;;5.43;4.70;;;20.80;12.40;;;;;;5087467;28;20487;-60
2022/03/07 08:18:15;;;;;;;5.70;5.05;;;21.10;12.40;;;;;;5069979;28;20046;-61
2022/03/07 08:20:40;;;;;;;8.30;5.20;;;21.50;12.00;;;;;;5087623;28;20040;-62
2022/03/07 08:23:06;;;;;;;5.45;3.70;;;21.60;11.10;;;;;;5070943;28;20116;-61
2022/03/07 08:25:32;;;;;;;4.32;3.92;;;21.60;11.40;;;;;;5088239;28;20071;-62
2022/03/07 08:27:59;;;;;;;5.13;4.10;;;21.80;11.10;;;;;;5063969;28;20035;-62
2022/03/07 08:30:26;;;;;;;5.97;4.57;;;22.10;11.10;;;;;;5087635;28;20028;-63
2022/03/07 08:32:53;;;;;;;6.88;4.90;;;22.10;10.10;;;;;;5072887;28;20059;-62
2022/03/07 08:35:19;;;;;;;7.57;5.38;;;21.40;8.90;;;;;;5087557;28;20355;-63
2022/03/07 08:37:46;;;;;;;6.63;4.55;;;21.00;8.80;;;;;;5073802;28;20021;-62
2022/03/07 08:40:14;;;;;;;6.63;4.13;;;20.90;9.20;;;;;;5087120;28;20044;-62
2022/03/07 08:42:39;;;;;;;7.18;4.72;;;21.30;9.50;;;;;;5074026;28;20548;-61
2022/03/07 08:45:06;;;;;;;6.57;5.00;;;21.50;7.60;;;;;;5087241;28;20050;-61
2022/03/07 08:47:33;;;;;;;6.47;4.28;;;21.20;8.20;;;;;;5085953;28;20028;-62
2022/03/07 08:49:58;;;;;;;6.60;4.38;;;21.40;8.00;;;;;;5082619;28;20582;-62
2022/03/07 08:52:24;;;;;;;7.22;4.18;;;21.70;7.70;;;;;;5085160;28;20028;-62
2022/03/07 08:54:50;;;;;;;5.22;3.95;;;21.60;7.30;;;;;;5087453;28;20119;-62
2022/03/07 08:57:16;;;;;;;5.20;3.92;;;21.30;6.90;;;;;;5085860;28;20020;-63
2022/03/07 08:59:42;;;;;;;4.30;3.20;;;21.10;7.20;;;;;;5087688;28;20522;-61
2022/03/07 09:02:09;;;;;;;5.28;4.53;;;21.20;7.00;;;;;;5085585;28;20320;-63
2022/03/07 09:04:35;;;;;;;6.80;4.55;;;21.20;6.70;;;;;;5087544;28;20065;-62
2022/03/07 09:07:01;;;;;;;6.10;4.93;;;20.90;6.40;;;;;;5085140;28;20487;-62
2022/03/07 09:09:27;;;;;;;8.52;4.78;;;21.00;5.40;;;;;;5087955;28;20021;-62
2022/03/07 09:11:53;;;;;;;6.03;3.83;;;20.70;5.60;;;;;;5085638;28;20028;-63
2022/03/07 09:14:19;;;;;;;4.60;3.75;;;20.40;5.50;;;;;;5087760;28;20043;-62
2022/03/07 09:16:45;;;;;;;5.57;4.25;;;20.20;5.80;;;;;;5085622;28;20024;-61
2022/03/07 09:19:10;;;;;;;5.13;3.58;;;20.10;3.80;;;;;;5087650;28;20031;-61
2022/03/07 09:21:36;;;;;;;8.45;4.50;;;19.10;4.70;;;;;;5086001;28;20044;-62
2022/03/07 09:24:01;;;;;;;4.50;3.45;;;19.00;5.10;;;;;;5087219;28;20136;-63
2022/03/07 09:26:27;;;;;;;6.15;4.35;;;19.00;4.30;;;;;;5084177;28;20575;-62
2022/03/07 09:28:52;;;;;;;4.45;3.08;;;18.40;4.40;;;;;;5060662;28;20384;-61
2022/03/07 09:31:18;;;;;;;3.88;3.25;;;18.50;4.60;;;;;;5084795;28;20335;-60
2022/03/07 09:33:44;;;;;;;6.18;3.30;;;18.80;4.40;;;;;;5087591;28;20077;-61
2022/03/07 09:36:09;;;;;;;4.63;3.53;;;19.30;4.10;;;;;;5087313;28;20089;-61
2022/03/07 09:38:36;;;;;;;6.28;3.35;;;19.70;3.60;;;;;;5066447;28;20029;-62
2022/03/07 09:41:03;;;;;;;4.25;2.92;;;19.10;3.50;;;;;;5068367;28;20035;-62
2022/03/07 09:43:29;;;;;;;4.43;3.25;;;19.30;3.90;;;;;;5067259;28;20556;-61
2022/03/07 09:45:55;;;;;;;4.88;4.00;;;19.80;3.40;;;;;;5086954;28;20024;-61
2022/03/07 09:48:25;;;;;;;5.90;3.63;;;19.60;3.10;;;;;;5067491;28;20673;-60
2022/03/07 09:50:51;;;;;;;4.93;3.28;;;19.70;2.50;;;;;;5086793;28;20107;-61
2022/03/07 09:53:17;;;;;;;4.25;3.30;;;19.00;3.10;;;;;;5068767;28;20089;-61
2022/03/07 09:55:44;;;;;;;4.68;3.97;;;18.90;3.80;;;;;;5090823;28;20040;-60
2022/03/07 09:58:10;;;;;;;5.22;3.53;;;19.20;3.40;;;;;;5074032;28;20028;-61
2022/03/07 10:00:40;;;;;;;5.28;3.88;;;18.80;3.60;;;;;;5090526;28;20046;-62
2022/03/07 10:03:07;;;;;;;5.97;3.90;;;18.00;4.40;;;;;;5073945;28;20469;-61
2022/03/07 10:05:36;;;;;;;6.35;4.65;;;18.30;4.30;;;;;;5090519;28;20059;-61
2022/03/07 10:08:01;;;;;;;6.82;4.68;;;17.50;4.20;;;;;;5075831;28;20424;-62
2022/03/07 10:10:32;;;;;;;5.03;3.65;;;17.20;4.90;;;;;;5091387;28;20081;-61
2022/03/07 10:13:06;;;;;;;5.00;3.53;;;17.10;5.30;;;;;;5063806;28;20029;-61
2022/03/07 10:15:32;;;;;;;5.35;2.80;;;17.50;4.90;;;;;;5052052;28;20111;-61
2022/03/07 10:17:58;;;;;;;4.00;3.03;;;17.80;4.60;;;;;;5074771;28;20115;-61
2022/03/07 10:20:26;;;;;;;5.05;3.70;;;17.70;4.60;;;;;;5091042;28;20131;-61
2022/03/07 10:23:00;;;;;;;4.22;3.33;;;17.10;5.10;;;;;;5076583;28;20115;-61
2022/03/07 10:25:27;;;;;;;4.03;2.97;;;16.20;6.10;;;;;;5089230;28;20047;-61
2022/03/07 10:27:54;;;;;;;7.65;3.70;;;15.50;7.00;;;;;;5088113;28;20432;-62
2022/03/07 10:31:00;;;;;;;4.93;3.70;;;14.20;8.20;;;;;;5089563;28;20020;-63
2022/03/07 10:34:26;;;;;;;5.88;3.53;;;12.70;10.50;;;;;;5051296;28;20091;-62
2022/03/07 10:37:53;;;;;;;5.00;3.65;;;11.20;14.10;;;;;;5083741;28;20064;-62
2022/03/07 10:41:18;;;;;;;5.13;3.70;;;10.00;16.70;;;;;;5068608;28;20529;-62
2022/03/07 10:44:50;;;;;;;8.52;4.88;;;9.10;18.50;;;;;;5080117;28;20036;-62
2022/03/07 10:48:15;;;;;;;5.80;4.25;;;8.60;21.90;;;;;;5081975;28;20032;-63
2022/03/07 10:51:41;;;;;;;6.60;3.47;;;8.20;23.80;;;;;;5064792;28;20095;-62
2022/03/07 10:55:06;;;;;;;5.15;3.33;;;7.90;24.00;;;;;;5080096;28;20036;-62
2022/03/07 10:58:31;;;;;;;4.15;3.03;;;7.70;23.20;;;;;;5090860;28;20125;-62
2022/03/07 11:02:06;;;;;;;6.53;4.05;;;7.70;25.40;;;;;;5070311;28;20400;-62
2022/03/07 11:05:31;;;;;;;4.68;3.47;;;7.50;28.00;;;;;;5077099;28;20145;-62
2022/03/07 11:08:57;;;;;;;5.63;3.88;;;7.40;25.60;;;;;;5090521;28;20028;-62
2022/03/07 11:12:22;;;;;;;5.90;4.07;;;7.40;25.50;;;;;;5086284;28;20032;-62
2022/03/07 11:15:48;;;;;;;6.03;3.42;;;7.40;26.60;;;;;;5069571;28;20036;-62
2022/03/07 11:18:34;;;;;;;7.38;3.40;;;7.30;26.60;;;;;;5079477;28;20039;-74
2022/03/07 11:21:02;;;;;;;4.13;2.88;;;7.30;27.40;;;;;;5088526;28;20504;-74
2022/03/07 11:23:28;;;;;;;3.35;2.42;;;7.30;25.90;;;;;;5090204;28;20115;-75
2022/03/07 11:25:55;;;;;;;4.35;3.55;;;7.40;25.90;;;;;;5088055;28;20459;-74
2022/03/07 11:28:30;;;;;;;7.97;4.43;;;7.50;26.40;;;;;;5083423;28;20024;-74
2022/03/07 11:30:56;;;;;;;5.47;3.08;;;7.50;25.60;;;;;;5060962;28;20055;-74
2022/03/07 11:33:27;;;;;;;5.15;2.97;;;7.60;26.00;;;;;;5089735;28;20452;-75
2022/03/07 11:35:54;;;;;;;6.35;3.60;;;7.50;25.20;;;;;;5060350;28;20029;-74
2022/03/07 11:38:25;;;;;;;6.78;3.47;;;7.60;24.50;;;;;;5089916;28;20073;-74
2022/03/07 11:41:11;;;;;;;4.57;3.17;;;7.60;24.10;;;;;;5071233;28;20572;-74
2022/03/07 11:44:04;;;;;;;4.93;3.58;;;7.40;23.80;;;;;;5032163;28;20064;-74
2022/03/07 11:46:42;;;;;;;4.47;3.00;;;7.50;24.90;;;;;;5065325;28;20040;-75
2022/03/07 11:49:10;;;;;;;5.72;3.20;;;7.50;25.30;;;;;;5089839;28;20016;-74
2022/03/07 11:51:38;;;;;;;3.47;2.65;;;7.60;24.40;;;;;;5070323;28;20111;-74
2022/03/07 11:54:17;;;;;;;4.80;2.40;;;7.60;22.80;;;;;;5089524;28;20487;-74
2022/03/07 11:56:43;;;;;;;3.85;2.38;;;7.70;22.80;;;;;;5066772;28;20059;-74
2022/03/07 11:59:09;;;;;;;4.43;2.60;;;7.70;22.00;;;;;;5089318;28;20067;-74
2022/03/07 12:01:35;;;;;;;5.60;2.35;;;7.60;22.00;;;;;;5088120;28;20488;-75
2022/03/07 12:04:15;;;;;;;3.78;2.20;;;7.50;22.20;;;;;;5089816;28;20035;-74
2022/03/07 12:06:52;;;;;;;5.05;3.28;;;7.50;23.00;;;;;;5066562;28;20051;-73
2022/03/07 12:09:32;;;;;;;6.20;2.50;;;7.60;22.60;;;;;;5089396;28;20427;-74
2022/03/07 12:12:10;;;;;;;4.82;2.38;;;7.60;22.50;;;;;;5089816;28;20031;-75
2022/03/07 12:14:38;;;;;;;6.07;2.20;;;7.70;22.30;;;;;;5049928;28;20108;-74
2022/03/07 12:17:23;;;;;;;3.22;1.80;;;7.80;22.10;;;;;;5088906;28;20510;-74
2022/03/07 12:19:59;;;;;;;2.42;1.95;;;7.80;22.10;;;;;;5053460;28;20161;-74
2022/03/07 12:22:27;;;;;;;3.33;2.40;;;7.80;22.80;;;;;;5089643;28;20023;-75
2022/03/07 12:24:55;;;;;;;2.38;1.80;;;7.90;22.00;;;;;;5087297;28;20502;-74
2022/03/07 12:27:23;;;;;;;4.28;2.67;;;7.90;21.90;;;;;;5082558;28;20510;-75
2022/03/07 12:29:51;;;;;;;4.13;2.00;;;7.80;21.80;;;;;;5087137;28;20076;-74
2022/03/07 12:32:17;;;;;;;4.75;2.03;;;7.80;22.00;;;;;;5071397;28;20073;-74
2022/03/07 12:34:44;;;;;;;2.15;1.70;;;7.90;22.20;;;;;;5087198;28;20013;-74
2022/03/07 12:37:16;;;;;;;4.68;1.98;;;7.90;22.40;;;;;;5089171;28;20028;-75
2022/03/07 12:39:57;;;;;;;3.88;2.30;;;7.90;21.80;;;;;;5051261;28;20029;-74
2022/03/07 12:42:24;;;;;;;3.92;1.90;;;7.90;21.80;;;;;;5089448;28;20031;-74
2022/03/07 12:44:50;;;;;;;4.07;2.00;;;7.90;22.10;;;;;;5086929;28;20094;-74
2022/03/07 12:47:19;;;;;;;3.15;2.15;;;7.90;21.90;;;;;;5089269;28;20408;-74
2022/03/07 12:49:49;;;;;;;3.90;1.70;;;7.90;21.60;;;;;;5087009;28;20039;-74
2022/03/07 12:52:26;;;;;;;3.63;2.00;;;7.80;21.80;;;;;;5088942;28;20036;-74
2022/03/07 12:54:53;;;;;;;3.33;1.40;;;7.90;22.00;;;;;;5053943;28;20031;-75
2022/03/07 12:57:19;;;;;;;1.88;1.25;;;8.00;19.90;;;;;;5088925;28;20610;-74
2022/03/07 13:00:07;;;;;;;1.23;1.00;;;8.10;19.00;;;;;;5087093;28;20388;-75